createdAt,value
2022-07-30T00:00:39.100Z,97647.59
2022-07-30T00:03:05.883Z,97650.56
2022-07-30T00:05:32.698Z,97647.44
2022-07-30T00:07:59.886Z,97645.28
2022-07-30T00:10:27.618Z,97649.41
2022-07-30T00:12:54.396Z,97647.28
2022-07-30T00:15:21.335Z,97646.25
2022-07-30T00:17:49.095Z,97648.41
2022-07-30T00:20:16.845Z,97651.50
2022-07-30T00:22:46.526Z,97642.13
2022-07-30T00:25:13.938Z,97640.66
2022-07-30T00:27:42.079Z,97635.72
2022-07-30T00:30:09.525Z,97624.56
2022-07-30T00:32:44.399Z,97629.13
2022-07-30T00:35:11.432Z,97632.56
2022-07-30T00:37:39.258Z,97628.81
2022-07-30T00:40:09.061Z,97632.56
2022-07-30T00:42:43.293Z,97634.72
2022-07-30T00:45:12.386Z,97628.81
2022-07-30T00:47:40.061Z,97635.22
2022-07-30T00:50:10.227Z,97635.69
2022-07-30T00:52:38.495Z,97638.63
2022-07-30T00:55:08.803Z,97646.84
2022-07-30T00:57:35.917Z,97636.81
2022-07-30T01:00:06.938Z,97643.53
2022-07-30T01:02:34.165Z,97648.44
2022-07-30T01:05:01.066Z,97643.66
2022-07-30T01:07:27.849Z,97647.72
2022-07-30T01:09:54.632Z,97656.25
2022-07-30T01:12:26.579Z,97657.03
2022-07-30T01:14:58.095Z,97652.09
2022-07-30T01:17:25.419Z,97650.63
2022-07-30T01:19:58.918Z,97653.38
2022-07-30T01:22:30.694Z,97644.16
2022-07-30T01:25:03.927Z,97647.13
2022-07-30T01:27:38.247Z,97660.41
2022-07-30T01:30:06.707Z,97661.41
2022-07-30T01:32:38.665Z,97659.75
2022-07-30T01:35:09.729Z,97646.09
2022-07-30T01:37:38.411Z,97650.84
2022-07-30T01:40:07.271Z,97655.75
2022-07-30T01:42:38.030Z,97651.25
2022-07-30T01:45:08.616Z,97657.97
2022-07-30T01:47:39.155Z,97657.31
2022-07-30T01:50:13.499Z,97667.94
2022-07-30T01:52:44.951Z,97667.13
2022-07-30T01:55:20.315Z,97665.47
2022-07-30T01:57:49.806Z,97667.44
2022-07-30T02:00:18.150Z,97664.66
2022-07-30T02:02:47.891Z,97648.22
2022-07-30T02:05:14.734Z,97667.75
2022-07-30T02:08:21.974Z,97674.41
2022-07-30T02:11:01.270Z,97667.41
2022-07-30T02:13:30.365Z,97673.97
2022-07-30T02:16:09.737Z,97673.16
2022-07-30T02:18:58.424Z,97667.41
2022-07-30T02:21:36.441Z,97664.06
2022-07-30T02:24:13.096Z,97652.09
2022-07-30T02:26:42.849Z,97656.16
2022-07-30T02:29:11.703Z,97664.31
2022-07-30T02:31:41.204Z,97658.41
2022-07-30T02:34:11.781Z,97659.56
2022-07-30T02:36:41.872Z,97660.84
2022-07-30T02:39:09.529Z,97662.09
2022-07-30T02:41:40.709Z,97663.97
2022-07-30T02:44:08.806Z,97665.94
2022-07-30T02:46:39.262Z,97660.16
2022-07-30T02:49:09.483Z,97667.88
2022-07-30T02:51:37.450Z,97664.72
2022-07-30T02:54:05.744Z,97664.22
2022-07-30T02:56:34.866Z,97660.78
2022-07-30T02:59:04.747Z,97663.41
2022-07-30T03:01:33.890Z,97666.38
2022-07-30T03:04:02.730Z,97666.22
2022-07-30T03:06:31.769Z,97666.06
2022-07-30T03:09:02.935Z,97659.88
2022-07-30T03:11:33.722Z,97667.59
2022-07-30T03:14:00.955Z,97657.25
2022-07-30T03:16:31.423Z,97661.78
2022-07-30T03:19:02.493Z,97662.94
2022-07-30T03:21:36.657Z,97658.66
2022-07-30T03:24:07.241Z,97664.88
2022-07-30T03:26:37.086Z,97668.63
2022-07-30T03:29:04.653Z,97661.91
2022-07-30T03:31:36.139Z,97671.56
2022-07-30T03:34:08.606Z,97673.50
2022-07-30T03:36:37.685Z,97674.63
2022-07-30T03:39:05.413Z,97675.75
2022-07-30T03:41:34.254Z,97676.06
2022-07-30T03:44:01.944Z,97681.00
2022-07-30T03:46:30.238Z,97677.09
2022-07-30T03:49:00.412Z,97681.50
2022-07-30T03:51:32.931Z,97681.50
2022-07-30T03:54:01.310Z,97674.63
2022-07-30T03:56:28.383Z,97676.28
2022-07-30T03:58:55.458Z,97683.16
2022-07-30T04:01:28.151Z,97679.13
2022-07-30T04:03:55.340Z,97679.81
2022-07-30T04:06:22.105Z,97685.41
2022-07-30T04:08:48.891Z,97684.16
2022-07-30T04:11:15.636Z,97684.50
2022-07-30T04:13:42.372Z,97695.66
2022-07-30T04:16:39.425Z,97697.88
2022-07-30T04:19:14.383Z,97693.97
2022-07-30T04:21:42.945Z,97703.34
2022-07-30T04:24:11.220Z,97713.22
2022-07-30T04:26:39.006Z,97708.50
2022-07-30T04:29:09.594Z,97715.06
2022-07-30T04:31:41.536Z,97717.38
2022-07-30T04:34:13.996Z,97725.81
2022-07-30T04:36:41.800Z,97715.81
2022-07-30T04:39:09.936Z,97710.56
2022-07-30T04:41:49.362Z,97716.63
2022-07-30T04:44:19.266Z,97724.59
2022-07-30T04:46:47.665Z,97716.75
2022-07-30T04:49:17.622Z,97726.16
2022-07-30T04:51:46.381Z,97727.34
2022-07-30T04:54:16.281Z,97725.09
2022-07-30T04:56:53.051Z,97729.69
2022-07-30T04:59:28.362Z,97729.91
2022-07-30T05:01:59.458Z,97730.44
2022-07-30T05:04:28.604Z,97730.09
2022-07-30T05:06:57.277Z,97729.50
2022-07-30T05:09:24.903Z,97727.38
2022-07-30T05:11:56.953Z,97730.66
2022-07-30T05:14:24.554Z,97733.97
2022-07-30T05:16:52.547Z,97733.84
2022-07-30T05:19:21.073Z,97736.16
2022-07-30T05:21:48.160Z,97744.88
2022-07-30T05:24:15.226Z,97737.69
2022-07-30T05:26:42.082Z,97748.72
2022-07-30T05:29:09.058Z,97758.63
2022-07-30T05:31:44.105Z,97744.00
2022-07-30T05:34:12.031Z,97747.97
2022-07-30T05:36:38.895Z,97745.69
2022-07-30T05:39:05.659Z,97752.25
2022-07-30T05:41:33.303Z,97755.25
2022-07-30T05:44:01.578Z,97764.28
2022-07-30T05:46:29.271Z,97757.88
2022-07-30T05:48:56.142Z,97755.94
2022-07-30T05:51:23.054Z,97763.34
2022-07-30T05:53:50.162Z,97765.81
2022-07-30T05:56:17.254Z,97765.81
2022-07-30T05:58:44.065Z,97767.78
2022-07-30T06:01:10.845Z,97771.22
2022-07-30T06:03:39.339Z,97772.22
2022-07-30T06:06:07.639Z,97767.63
2022-07-30T06:08:35.125Z,97768.44
2022-07-30T06:11:02.106Z,97779.47
2022-07-30T06:13:29.104Z,97778.19
2022-07-30T06:15:56.087Z,97780.63
2022-07-30T06:18:23.565Z,97781.47
2022-07-30T06:20:54.115Z,97786.72
2022-07-30T06:23:22.013Z,97787.06
2022-07-30T06:25:49.539Z,97783.44
2022-07-30T06:31:06.094Z,97776.09
2022-07-30T06:33:33.718Z,97778.41
2022-07-30T06:36:00.722Z,97777.13
2022-07-30T06:38:28.242Z,97773.66
2022-07-30T06:41:02.023Z,97770.69
2022-07-30T06:43:29.929Z,97771.84
2022-07-30T06:45:56.736Z,97769.03
2022-07-30T06:48:23.656Z,97773.50
2022-07-30T06:50:50.507Z,97771.44
2022-07-30T06:53:17.308Z,97769.09
2022-07-30T06:55:44.389Z,97772.56
2022-07-30T06:58:11.317Z,97772.38
2022-07-30T07:00:38.087Z,97775.84
2022-07-30T07:03:07.540Z,97776.91
2022-07-30T07:05:38.414Z,97769.69
2022-07-30T07:08:05.498Z,97774.34
2022-07-30T07:10:32.478Z,97770.41
2022-07-30T07:13:00.623Z,97767.34
2022-07-30T07:15:36.192Z,97768.41
2022-07-30T07:18:05.041Z,97782.97
2022-07-30T07:20:33.060Z,97777.97
2022-07-30T07:23:05.300Z,97773.88
2022-07-30T07:25:33.482Z,97776.16
2022-07-30T07:28:11.152Z,97778.38
2022-07-30T07:30:41.427Z,97780.63
2022-07-30T07:33:08.381Z,97786.91
2022-07-30T07:35:45.491Z,97783.09
2022-07-30T07:38:18.495Z,97784.56
2022-07-30T07:40:46.358Z,97784.78
2022-07-30T07:43:14.564Z,97789.13
2022-07-30T07:45:43.043Z,97795.06
2022-07-30T07:48:10.096Z,97786.16
2022-07-30T07:50:37.315Z,97796.19
2022-07-30T07:53:04.978Z,97783.25
2022-07-30T07:55:32.955Z,97786.31
2022-07-30T07:58:00.538Z,97792.97
2022-07-30T08:00:27.480Z,97791.91
2022-07-30T08:02:54.294Z,97793.56
2022-07-30T08:05:21.157Z,97793.91
2022-07-30T08:07:48.046Z,97792.06
2022-07-30T08:10:15.984Z,97795.56
2022-07-30T08:12:43.250Z,97800.56
2022-07-30T08:15:11.031Z,97805.59
2022-07-30T08:17:45.690Z,97799.34
2022-07-30T08:20:15.513Z,97800.91
2022-07-30T08:22:42.955Z,97800.53
2022-07-30T08:25:10.130Z,97798.44
2022-07-30T08:27:37.003Z,97794.97
2022-07-30T08:30:09.428Z,97791.19
2022-07-30T08:32:36.836Z,97794.41
2022-07-30T08:35:05.256Z,97795.31
2022-07-30T08:37:32.243Z,97792.81
2022-07-30T08:39:59.139Z,97797.28
2022-07-30T08:42:27.455Z,97802.25
2022-07-30T08:44:55.073Z,97800.31
2022-07-30T08:47:31.032Z,97797.44
2022-07-30T08:50:04.334Z,97803.13
2022-07-30T08:52:37.128Z,97808.91
2022-07-30T08:55:08.043Z,97815.16
2022-07-30T08:57:35.646Z,97816.94
2022-07-30T09:00:06.271Z,97816.38
2022-07-30T09:02:33.911Z,97816.38
2022-07-30T09:05:00.860Z,97820.78
2022-07-30T09:07:27.781Z,97821.03
2022-07-30T09:09:56.311Z,97817.09
2022-07-30T09:12:40.615Z,97821.13
2022-07-30T09:15:14.155Z,97827.78
2022-07-30T09:18:02.716Z,97827.25
2022-07-30T09:20:36.336Z,97829.00
2022-07-30T09:23:05.927Z,97823.22
2022-07-30T09:25:40.883Z,97830.59
2022-07-30T09:28:15.586Z,97827.41
2022-07-30T09:30:53.978Z,97830.00
2022-07-30T09:33:41.635Z,97829.44
2022-07-30T09:36:12.584Z,97835.41
2022-07-30T09:38:52.544Z,97828.78
2022-07-30T09:41:40.251Z,97833.44
2022-07-30T09:44:07.548Z,97835.06
2022-07-30T09:46:51.769Z,97838.72
2022-07-30T09:49:21.951Z,97825.97
2022-07-30T09:51:56.569Z,97823.09
2022-07-30T09:54:25.954Z,97827.13
2022-07-30T09:57:25.769Z,97815.53
2022-07-30T09:59:56.893Z,97801.06
2022-07-30T10:02:35.822Z,97810.28
2022-07-30T10:05:15.722Z,97817.09
2022-07-30T10:07:53.947Z,97809.97
2022-07-30T10:10:30.031Z,97802.56
2022-07-30T10:13:04.545Z,97809.94
2022-07-30T10:15:35.091Z,97800.41
2022-07-30T10:18:06.351Z,97805.91
2022-07-30T10:20:35.254Z,97807.34
2022-07-30T10:23:08.064Z,97808.34
2022-07-30T10:25:49.228Z,97806.06
2022-07-30T10:28:24.135Z,97801.69
2022-07-30T10:30:57.220Z,97797.78
2022-07-30T10:33:34.442Z,97797.31
2022-07-30T10:36:03.678Z,97787.72
2022-07-30T10:38:39.130Z,97801.59
2022-07-30T10:41:42.791Z,97782.19
2022-07-30T10:44:48.367Z,97782.88
2022-07-30T10:47:24.720Z,97785.38
2022-07-30T10:50:11.753Z,97790.53
2022-07-30T10:52:51.152Z,97795.19
2022-07-30T10:55:36.893Z,97786.50
2022-07-30T10:58:10.890Z,97792.69
2022-07-30T11:00:52.713Z,97776.28
2022-07-30T11:03:41.464Z,97787.78
2022-07-30T11:06:24.051Z,97774.50
2022-07-30T11:08:51.049Z,97777.63
2022-07-30T11:11:59.163Z,97773.78
2022-07-30T11:14:10.991Z,97784.47
2022-07-30T11:16:39.379Z,97780.38
2022-07-30T11:19:53.354Z,97775.16
2022-07-30T11:22:25.294Z,97777.41
2022-07-30T11:24:52.783Z,97773.81
2022-07-30T11:27:45.759Z,97783.34
2022-07-30T11:30:17.158Z,97779.81
2022-07-30T11:33:18.647Z,97775.56
2022-07-30T11:36:07.575Z,97773.88
2022-07-30T11:39:06.761Z,97778.34
2022-07-30T11:41:34.275Z,97778.75
2022-07-30T11:44:30.044Z,97783.25
2022-07-30T11:46:56.960Z,97777.94
2022-07-30T11:49:24.362Z,97777.94
2022-07-30T11:51:51.350Z,97782.88
2022-07-30T11:54:18.913Z,97780.63
2022-07-30T11:56:49.371Z,97771.81
2022-07-30T11:59:16.369Z,97781.03
2022-07-30T12:01:43.529Z,97777.13
2022-07-30T12:04:10.405Z,97772.25
2022-07-30T12:06:46.143Z,97775.34
2022-07-30T12:09:20.809Z,97773.09
2022-07-30T12:11:47.837Z,97774.31
2022-07-30T12:14:14.625Z,97771.47
2022-07-30T12:16:51.276Z,97774.09
2022-07-30T12:19:18.165Z,97772.44
2022-07-30T12:21:48.292Z,97767.75
2022-07-30T12:24:26.557Z,97765.34
2022-07-30T12:27:04.592Z,97750.13
2022-07-30T12:29:34.097Z,97756.91
2022-07-30T12:32:01.759Z,97761.84
2022-07-30T12:34:28.767Z,97760.91
2022-07-30T12:37:06.270Z,97763.22
2022-07-30T12:39:33.022Z,97772.69
2022-07-30T12:41:59.830Z,97788.25
2022-07-30T12:44:44.436Z,97775.06
2022-07-30T12:47:26.868Z,97790.81
2022-07-30T12:49:56.502Z,97803.28
2022-07-30T12:52:29.338Z,97795.38
2022-07-30T12:55:12.340Z,97789.50
2022-07-30T12:58:07.090Z,97784.88
2022-07-30T13:00:53.529Z,97766.13
2022-07-30T13:03:26.787Z,97771.81
2022-07-30T13:05:56.414Z,97770.03
2022-07-30T13:08:52.020Z,97770.06
2022-07-30T13:11:21.976Z,97774.34
2022-07-30T13:13:50.613Z,97761.72
2022-07-30T13:16:19.835Z,97763.31
2022-07-30T13:18:47.435Z,97758.56
2022-07-30T13:21:14.354Z,97760.88
2022-07-30T13:23:42.358Z,97753.56
2022-07-30T13:26:10.717Z,97755.31
2022-07-30T13:28:38.058Z,97755.47
2022-07-30T13:31:05.739Z,97755.00
2022-07-30T13:33:32.830Z,97746.06
2022-07-30T13:35:59.612Z,97756.47
2022-07-30T13:38:27.099Z,97751.63
2022-07-30T13:40:57.010Z,97757.38
2022-07-30T13:43:27.631Z,97745.84
2022-07-30T13:45:54.409Z,97743.41
2022-07-30T13:48:26.851Z,97743.38
2022-07-30T13:50:53.639Z,97738.94
2022-07-30T13:53:20.688Z,97737.19
2022-07-30T13:55:47.639Z,97733.59
2022-07-30T13:58:14.931Z,97734.34
2022-07-30T14:00:44.909Z,97729.38
2022-07-30T14:03:11.841Z,97729.16
2022-07-30T14:05:42.070Z,97735.25
2022-07-30T14:08:11.961Z,97722.94
2022-07-30T14:10:40.380Z,97725.44
2022-07-30T14:13:10.318Z,97727.03
2022-07-30T14:15:41.195Z,97723.38
2022-07-30T14:18:08.037Z,97727.69
2022-07-30T14:20:35.150Z,97719.19
2022-07-30T14:23:02.098Z,97720.25
2022-07-30T14:25:28.993Z,97719.66
2022-07-30T14:27:55.778Z,97715.19
2022-07-30T14:30:24.421Z,97708.25
2022-07-30T14:32:57.390Z,97711.97
2022-07-30T14:35:26.427Z,97711.16
2022-07-30T14:37:53.214Z,97710.56
2022-07-30T14:40:20.013Z,97715.47
2022-07-30T14:42:47.984Z,97718.16
2022-07-30T14:45:14.805Z,97729.16
2022-07-30T14:47:41.549Z,97470.78
2022-07-30T14:50:09.676Z,97713.25
2022-07-30T14:52:38.630Z,97713.81
2022-07-30T14:55:08.510Z,97722.66
2022-07-30T14:57:35.706Z,97722.97
2022-07-30T15:00:05.096Z,97718.09
2022-07-30T15:02:31.830Z,97714.75
2022-07-30T15:04:58.741Z,97710.41
2022-07-30T15:07:25.598Z,97710.91
2022-07-30T15:09:52.354Z,97714.50
2022-07-30T15:12:23.859Z,97712.03
2022-07-30T15:14:54.083Z,97712.34
2022-07-30T15:17:20.936Z,97716.44
2022-07-30T15:19:51.053Z,97718.31
2022-07-30T15:22:20.080Z,97719.47
2022-07-30T15:24:46.992Z,97722.09
2022-07-30T15:27:13.851Z,97714.47
2022-07-30T15:29:40.610Z,97718.22
2022-07-30T15:32:07.744Z,97715.53
2022-07-30T15:34:34.875Z,97717.97
2022-07-30T15:37:03.227Z,97718.25
2022-07-30T15:39:32.729Z,97720.09
2022-07-30T15:42:05.637Z,97717.88
2022-07-30T15:44:32.819Z,97730.66
2022-07-30T15:47:00.792Z,97720.38
2022-07-30T15:49:28.706Z,97727.22
2022-07-30T15:51:57.316Z,97737.69
2022-07-30T15:54:24.254Z,97745.16
2022-07-30T15:56:53.774Z,97740.78
2022-07-30T15:59:21.930Z,97741.84
2022-07-30T16:01:50.033Z,97745.84
2022-07-30T16:04:19.757Z,97750.22
2022-07-30T16:06:48.706Z,97748.47
2022-07-30T16:09:16.584Z,97744.59
2022-07-30T16:11:43.419Z,97750.00
2022-07-30T16:14:10.960Z,97750.47
2022-07-30T16:16:38.174Z,97749.28
2022-07-30T16:19:05.013Z,97744.81
2022-07-30T16:21:31.870Z,97764.88
2022-07-30T16:23:59.052Z,97761.66
2022-07-30T16:26:25.847Z,97761.63
2022-07-30T16:28:52.725Z,97764.88
2022-07-30T16:31:19.508Z,97772.66
2022-07-30T16:33:47.177Z,97771.22
2022-07-30T16:36:14.275Z,97762.97
2022-07-30T16:38:41.273Z,97763.91
2022-07-30T16:41:13.369Z,97761.16
2022-07-30T16:43:40.802Z,97764.50
2022-07-30T16:46:07.748Z,97763.31
2022-07-30T16:48:34.594Z,97771.44
2022-07-30T16:51:01.619Z,97769.63
2022-07-30T16:53:28.683Z,97769.59
2022-07-30T16:55:56.906Z,97771.78
2022-07-30T16:58:30.534Z,97770.53
2022-07-30T17:00:58.516Z,97781.53
2022-07-30T17:03:28.536Z,97775.53
2022-07-30T17:05:55.558Z,97779.22
2022-07-30T17:08:24.951Z,97773.25
2022-07-30T17:10:53.084Z,97777.69
2022-07-30T17:13:21.031Z,97783.44
2022-07-30T17:15:48.422Z,97791.22
2022-07-30T17:18:15.822Z,97788.81
2022-07-30T17:20:42.724Z,97785.84
2022-07-30T17:23:09.507Z,97792.19
2022-07-30T17:25:36.256Z,97779.91
2022-07-30T17:28:03.640Z,97790.53
2022-07-30T17:30:30.536Z,97794.34
2022-07-30T17:32:57.690Z,97790.81
2022-07-30T17:35:27.233Z,97789.13
2022-07-30T17:37:54.442Z,97790.06
2022-07-30T17:40:29.547Z,97783.28
2022-07-30T17:43:07.299Z,97786.91
2022-07-30T17:45:35.937Z,97783.16
2022-07-30T17:48:05.153Z,97785.41
2022-07-30T17:50:33.355Z,97783.97
2022-07-30T17:53:03.433Z,97793.94
2022-07-30T17:55:31.582Z,97785.94
2022-07-30T17:57:58.334Z,97793.84
2022-07-30T18:00:25.414Z,97797.69
2022-07-30T18:02:52.239Z,97786.19
2022-07-30T18:05:19.100Z,97791.81
2022-07-30T18:07:45.889Z,97793.81
2022-07-30T18:10:13.049Z,97793.09
2022-07-30T18:12:48.898Z,97794.69
2022-07-30T18:15:20.187Z,97800.09
2022-07-30T18:17:46.985Z,97805.50
2022-07-30T18:20:14.573Z,97799.53
2022-07-30T18:22:42.091Z,97805.75
2022-07-30T18:25:19.094Z,97809.53
2022-07-30T18:27:47.420Z,97814.34
2022-07-30T18:30:14.701Z,97811.97
2022-07-30T18:32:41.531Z,97818.56
2022-07-30T18:35:13.658Z,97815.34
2022-07-30T18:37:43.212Z,97819.97
2022-07-30T18:40:12.730Z,97827.16
2022-07-30T18:42:39.625Z,97822.97
2022-07-30T18:45:07.677Z,97836.31
2022-07-30T18:47:34.595Z,97835.41
2022-07-30T18:50:01.820Z,97834.50
2022-07-30T18:52:28.626Z,97832.94
2022-07-30T18:54:55.395Z,97835.84
2022-07-30T18:57:22.228Z,97838.53
2022-07-30T18:59:49.035Z,97841.44
2022-07-30T19:02:15.795Z,97834.94
2022-07-30T19:04:42.575Z,97846.56
2022-07-30T19:07:09.346Z,97842.53
2022-07-30T19:09:36.186Z,97848.41
2022-07-30T19:12:04.232Z,97840.75
2022-07-30T19:14:31.189Z,97853.19
2022-07-30T19:16:59.309Z,97850.06
2022-07-30T19:19:27.011Z,97855.94
2022-07-30T19:21:53.965Z,97863.25
2022-07-30T19:24:20.805Z,97857.88
2022-07-30T19:26:47.570Z,97870.97
2022-07-30T19:29:14.396Z,97860.97
2022-07-30T19:31:41.596Z,97872.53
2022-07-30T19:34:10.706Z,97872.72
2022-07-30T19:36:38.235Z,97871.09
2022-07-30T19:39:07.444Z,97872.75
2022-07-30T19:41:40.490Z,97873.44
2022-07-30T19:44:09.281Z,97881.84
2022-07-30T19:46:36.800Z,97884.16
2022-07-30T19:49:06.007Z,97881.38
2022-07-30T19:52:11.171Z,97879.91
2022-07-30T19:54:20.768Z,97874.13
2022-07-30T19:56:48.929Z,97885.31
2022-07-30T19:59:16.074Z,97879.91
2022-07-30T20:01:43.891Z,97885.94
2022-07-30T20:04:11.183Z,97883.00
2022-07-30T20:06:39.922Z,97887.94
2022-07-30T20:09:14.553Z,97891.22
2022-07-30T20:11:46.059Z,97887.59
2022-07-30T20:14:16.292Z,97894.34
2022-07-30T20:16:43.791Z,97892.53
2022-07-30T20:19:15.742Z,97900.41
2022-07-30T20:21:56.066Z,97894.13
2022-07-30T20:24:24.858Z,97897.72
2022-07-30T20:26:52.596Z,97906.25
2022-07-30T20:29:20.753Z,97904.44
2022-07-30T20:31:49.801Z,97912.78
2022-07-30T20:34:27.547Z,97914.09
2022-07-30T20:36:56.563Z,97911.78
2022-07-30T20:39:25.473Z,97917.63
2022-07-30T20:42:07.472Z,97921.09
2022-07-30T20:44:40.092Z,97916.75
2022-07-30T20:47:11.932Z,97918.34
2022-07-30T20:49:40.190Z,97909.06
2022-07-30T20:52:09.697Z,97914.81
2022-07-30T20:54:37.683Z,97915.13
2022-07-30T20:57:15.479Z,97916.78
2022-07-30T20:59:43.443Z,97917.38
2022-07-30T21:02:15.075Z,97922.13
2022-07-30T21:04:42.223Z,97911.72
2022-07-30T21:07:13.406Z,97914.31
2022-07-30T21:09:52.208Z,97914.91
2022-07-30T21:12:19.457Z,97919.97
2022-07-30T21:15:00.032Z,97910.88
2022-07-30T21:17:26.864Z,97920.00
2022-07-30T21:19:55.090Z,97916.72
2022-07-30T21:22:22.453Z,97914.56
2022-07-30T21:24:50.826Z,97910.72
2022-07-30T21:27:17.962Z,97920.88
2022-07-30T21:29:45.915Z,97923.50
2022-07-30T21:32:13.038Z,97923.50
2022-07-30T21:34:42.326Z,97927.09
2022-07-30T21:37:09.850Z,97929.34
2022-07-30T21:39:40.199Z,97926.34
2022-07-30T21:42:10.370Z,97922.66
2022-07-30T21:44:38.303Z,97927.56
2022-07-30T21:47:10.266Z,97925.66
2022-07-30T21:49:39.362Z,97921.03
2022-07-30T21:52:08.678Z,97929.19
2022-07-30T21:54:48.278Z,97930.19
2022-07-30T21:57:23.104Z,97940.69
2022-07-30T21:59:55.234Z,97935.03
2022-07-30T22:02:23.824Z,97944.34
2022-07-30T22:04:51.840Z,97937.03
2022-07-30T22:07:18.741Z,97937.50
2022-07-30T22:09:49.055Z,97932.69
2022-07-30T22:12:18.130Z,97940.00
2022-07-30T22:14:49.678Z,97932.59
2022-07-30T22:17:23.883Z,97934.84
2022-07-30T22:20:05.072Z,97931.25
2022-07-30T22:22:37.622Z,97926.97
2022-07-30T22:25:06.729Z,97924.47
2022-07-30T22:27:39.722Z,97926.38
2022-07-30T22:30:13.757Z,97936.06
2022-07-30T22:32:41.266Z,97935.38
2022-07-30T22:35:10.385Z,97943.69
2022-07-30T22:37:38.055Z,97937.22
2022-07-30T22:40:07.212Z,97936.84
2022-07-30T22:42:36.598Z,97944.34
2022-07-30T22:45:16.371Z,97943.78
2022-07-30T22:50:51.813Z,97941.59
2022-07-30T22:54:10.401Z,97937.47
2022-07-30T22:56:06.183Z,97930.00
2022-07-30T22:58:40.961Z,97942.75
2022-07-30T23:01:09.479Z,97941.38
2022-07-30T23:03:37.863Z,97941.66
2022-07-30T23:06:04.742Z,97937.53
2022-07-30T23:08:33.361Z,97938.94
2022-07-30T23:11:00.319Z,97939.47
2022-07-30T23:12:30.470Z,97938.81
2022-07-30T23:13:28.322Z,97935.66
2022-07-30T23:15:55.087Z,97940.34
2022-07-30T23:18:21.836Z,97934.28
2022-07-30T23:20:48.621Z,97939.53
2022-07-30T23:23:15.362Z,97936.63
2022-07-30T23:25:42.117Z,97936.25
2022-07-30T23:28:08.891Z,97929.06
2022-07-30T23:30:35.718Z,97930.47
2022-07-30T23:33:02.596Z,97929.91
2022-07-30T23:35:29.397Z,97934.47
2022-07-30T23:37:57.256Z,97928.53
2022-07-30T23:40:24.121Z,97939.13
2022-07-30T23:42:51.761Z,97946.16
2022-07-30T23:45:19.015Z,97940.09
2022-07-30T23:48:00.211Z,97937.50
2022-07-30T23:50:35.515Z,97941.75
2022-07-30T23:53:04.827Z,97936.66
2022-07-30T23:55:32.396Z,97944.81
2022-07-30T23:58:00.091Z,97943.25
